Time;durP1;ratioP1;P1;durP2;ratioP2;P2;SDS_P1;SDS_P2;PMS_P1;PMS_P2;Temp;Humidity;BMP_temperature;BMP_pressure;BME280_temperature;BME280_humidity;BME280_pressure;Samples;Min_cycle;Max_cycle;Signal;HPM_P1;HPM_P2
2021/06/11 00:00:45;;;;;;;6.35;5.60;;;18.60;70.60;;;17.55;67.45;96298.09;4987955;28;20085;-70
2021/06/11 00:03:11;;;;;;;5.93;5.32;;;18.60;70.60;;;17.52;67.74;96301.22;4986902;28;20038;-70
2021/06/11 00:05:37;;;;;;;6.40;5.80;;;18.60;70.60;;;17.47;67.78;96303.75;5001981;28;20034;-70
2021/06/11 00:08:03;;;;;;;6.22;5.63;;;18.60;71.10;;;17.47;68.03;96311.75;4991944;28;20026;-70
2021/06/11 00:10:29;;;;;;;6.13;5.40;;;18.60;71.10;;;17.42;67.62;96309.72;4989609;28;20057;-70
2021/06/11 00:12:58;;;;;;;6.35;5.15;;;18.60;71.30;;;17.43;67.76;96308.72;4972930;28;20405;-70
2021/06/11 00:15:24;;;;;;;6.63;5.30;;;18.50;71.60;;;17.38;67.59;96297.94;5009213;28;20488;-69
2021/06/11 00:17:49;;;;;;;7.05;5.00;;;18.40;71.70;;;17.34;67.91;96298.63;4975884;28;20038;-69
2021/06/11 00:20:16;;;;;;;6.63;5.35;;;18.40;71.80;;;17.29;68.56;96296.66;4979332;28;20050;-70
2021/06/11 00:22:41;;;;;;;6.65;5.63;;;18.40;71.90;;;17.26;68.91;96290.97;4975282;28;20071;-70
2021/06/11 00:25:09;;;;;;;6.63;5.78;;;18.30;72.10;;;17.24;68.73;96301.03;5002529;28;20069;-70
2021/06/11 00:27:35;;;;;;;9.15;6.20;;;18.30;72.20;;;17.20;68.55;96298.00;4994458;28;20524;-70
2021/06/11 00:30:03;;;;;;;7.97;6.07;;;18.20;72.10;;;17.15;68.77;96303.97;4993714;28;20042;-70
2021/06/11 00:32:29;;;;;;;8.35;5.63;;;18.20;72.30;;;17.13;68.72;96298.06;4995096;28;20490;-70
2021/06/11 00:34:54;;;;;;;6.47;5.82;;;18.20;72.60;;;17.09;69.60;96299.56;4983429;28;20133;-70
2021/06/11 00:37:20;;;;;;;8.20;5.97;;;18.10;72.80;;;17.08;68.98;96300.59;4991796;28;20023;-70
2021/06/11 00:39:46;;;;;;;8.38;5.90;;;18.10;72.80;;;17.08;68.98;96297.94;4991673;28;20039;-70
2021/06/11 00:42:12;;;;;;;7.25;6.05;;;18.10;72.80;;;17.07;69.54;96301.66;4991447;28;20113;-71
2021/06/11 00:44:37;;;;;;;8.15;5.93;;;18.20;72.80;;;17.07;69.44;96296.31;5003224;28;20057;-70
2021/06/11 00:47:03;;;;;;;7.00;5.93;;;18.20;73.00;;;17.05;70.11;96301.06;5010927;28;20400;-70
2021/06/11 00:49:29;;;;;;;11.25;7.47;;;18.10;72.90;;;17.04;69.29;96302.09;4981380;28;20101;-70
2021/06/11 00:51:55;;;;;;;7.03;5.85;;;18.10;73.10;;;17.04;69.72;96291.47;4991758;28;20069;-70
2021/06/11 00:54:21;;;;;;;9.45;6.22;;;18.10;73.10;;;17.05;69.93;96303.72;5000795;28;20546;-70
2021/06/11 00:56:46;;;;;;;6.68;5.95;;;18.20;73.20;;;17.06;69.54;96302.69;5003313;28;20037;-70
2021/06/11 00:59:12;;;;;;;6.85;6.15;;;18.20;73.50;;;17.06;70.36;96294.72;4993403;28;20541;-70
2021/06/11 01:01:41;;;;;;;7.40;6.63;;;18.20;73.40;;;17.07;69.89;96298.97;5004250;28;20038;-69
2021/06/11 01:04:07;;;;;;;8.13;6.50;;;18.20;73.10;;;17.07;69.78;96298.19;5010351;28;20049;-69
2021/06/11 01:06:32;;;;;;;9.18;6.55;;;18.20;73.00;;;17.07;70.18;96292.84;4983609;28;20116;-70
2021/06/11 01:08:58;;;;;;;7.95;6.50;;;18.20;73.50;;;17.06;70.00;96294.72;4983206;28;20036;-70
2021/06/11 01:11:24;;;;;;;6.20;5.60;;;18.20;73.60;;;17.04;70.02;96291.47;4979133;28;20077;-70
2021/06/11 01:13:50;;;;;;;9.02;6.13;;;18.20;73.60;;;17.01;70.67;96286.59;4988454;28;20133;-70
2021/06/11 01:16:16;;;;;;;7.20;6.50;;;18.20;73.50;;;17.03;70.24;96289.84;4974314;28;20130;-70
2021/06/11 01:18:41;;;;;;;10.13;6.75;;;18.10;73.60;;;17.02;70.68;96282.91;4973802;28;20065;-70
2021/06/11 01:21:07;;;;;;;7.47;6.53;;;18.20;73.70;;;17.02;70.70;96290.88;4996957;28;20041;-69
2021/06/11 01:24:05;;;;;;;7.93;6.68;;;18.20;73.30;;;17.04;71.69;96288.81;4981359;28;20456;-70
2021/06/11 01:26:34;;;;;;;10.25;6.38;;;18.20;73.40;;;17.04;70.76;96291.47;4992554;28;20034;-70
2021/06/11 01:29:04;;;;;;;9.18;7.07;;;18.20;73.20;;;17.05;70.66;96279.78;4989617;28;20042;-70
2021/06/11 01:31:31;;;;;;;9.82;6.65;;;18.10;72.90;;;17.04;70.46;96278.19;4990548;28;20057;-70
2021/06/11 01:34:10;;;;;;;7.15;6.45;;;18.10;73.30;;;17.03;71.47;96284.53;5007079;28;20085;-70
2021/06/11 01:36:41;;;;;;;8.73;7.07;;;18.10;73.40;;;17.02;71.39;96277.59;4973005;28;20025;-70
2021/06/11 01:39:08;;;;;;;8.38;7.25;;;18.10;73.40;;;17.01;70.51;96275.97;4990983;28;20038;-70
2021/06/11 01:41:34;;;;;;;10.40;7.32;;;18.10;73.40;;;16.99;70.62;96272.72;4985272;28;20515;-70
2021/06/11 01:44:00;;;;;;;8.25;7.40;;;18.10;73.50;;;16.99;70.11;96270.06;4983452;28;20130;-70
2021/06/11 01:46:29;;;;;;;8.18;6.88;;;18.10;73.50;;;16.96;71.19;96269.69;4989344;28;20486;-70
2021/06/11 01:48:54;;;;;;;9.45;7.10;;;18.10;73.50;;;16.95;70.51;96260.91;4994485;28;20030;-70
2021/06/11 01:51:20;;;;;;;8.32;7.38;;;18.10;73.50;;;16.92;70.45;96266.66;4996675;28;20029;-70
2021/06/11 01:53:46;;;;;;;9.30;6.63;;;18.10;73.80;;;16.90;70.52;96266.09;5008598;28;20050;-70
2021/06/11 01:56:15;;;;;;;7.22;6.53;;;18.10;74.00;;;16.87;71.87;96263.88;4976807;28;20133;-69
2021/06/11 01:58:41;;;;;;;7.15;6.45;;;17.90;74.10;;;16.82;71.45;96259.25;4965403;28;20113;-69
2021/06/11 02:01:09;;;;;;;6.95;6.28;;;18.00;74.40;;;16.78;72.04;96262.59;4976834;28;20476;-69
2021/06/11 02:03:36;;;;;;;8.00;6.95;;;17.90;74.70;;;16.73;71.51;96267.72;5000432;28;20087;-69
2021/06/11 02:06:01;;;;;;;9.80;7.70;;;17.80;75.00;;;16.69;71.39;96271.88;4972983;28;20026;-70
2021/06/11 02:08:27;;;;;;;8.40;7.40;;;17.70;75.00;;;16.63;71.76;96268.25;4993809;28;20504;-68
2021/06/11 02:10:53;;;;;;;8.23;7.15;;;17.70;75.30;;;16.58;72.01;96264.63;5006638;28;20069;-70
2021/06/11 02:13:19;;;;;;;8.30;7.13;;;17.70;75.70;;;16.55;71.78;96265.91;4983821;28;20127;-70
2021/06/11 02:15:44;;;;;;;8.85;6.90;;;17.70;75.60;;;16.52;72.05;96256.53;4986363;28;20480;-67
2021/06/11 02:18:12;;;;;;;8.48;7.57;;;17.70;75.70;;;16.50;71.37;96257.75;4993115;28;20379;-68
2021/06/11 02:20:38;;;;;;;10.25;7.38;;;17.60;75.80;;;16.45;71.83;96258.44;4991562;28;20100;-68
2021/06/11 02:23:04;;;;;;;8.88;7.97;;;17.50;76.00;;;16.44;72.46;96259.47;5017558;28;20046;-68
2021/06/11 02:25:29;;;;;;;24.08;20.70;;;17.60;76.20;;;16.44;72.73;96258.66;4991964;28;20374;-68
2021/06/11 02:27:56;;;;;;;14.23;11.32;;;17.60;76.40;;;16.42;73.06;96258.88;4992279;28;20544;-68
2021/06/11 02:30:22;;;;;;;11.48;10.27;;;17.60;76.40;;;16.42;72.48;96258.88;4991324;28;20041;-68
2021/06/11 02:32:48;;;;;;;12.80;11.35;;;17.50;76.40;;;16.41;72.96;96257.25;4986819;28;20341;-68
2021/06/11 02:35:20;;;;;;;24.48;19.42;;;17.60;76.40;;;16.40;74.26;96260.94;4986949;28;20357;-69
2021/06/11 02:37:46;;;;;;;14.00;9.98;;;17.60;76.40;;;16.40;73.13;96260.94;4988601;28;20076;-69
2021/06/11 02:40:13;;;;;;;10.25;8.23;;;17.60;76.50;;;16.38;73.44;96255.03;4971901;28;20042;-69
2021/06/11 02:42:38;;;;;;;8.35;7.55;;;17.50;76.40;;;16.36;72.74;96251.81;4998117;28;20501;-68
2021/06/11 02:45:08;;;;;;;11.82;8.07;;;17.50;76.40;;;16.34;74.13;96259.19;4973758;28;20133;-69
2021/06/11 02:47:46;;;;;;;8.87;7.63;;;17.50;76.60;;;16.31;73.67;96254.31;5006071;28;20049;-69
2021/06/11 02:50:35;;;;;;;9.23;8.23;;;17.40;76.70;;;16.29;75.52;96252.88;4999749;28;20037;-68
2021/06/11 02:53:01;;;;;;;16.15;12.40;;;17.50;76.80;;;16.26;73.03;96256.00;5001770;28;20048;-69
2021/06/11 02:55:28;;;;;;;25.60;19.10;;;17.50;76.90;;;16.27;73.81;96258.41;5001980;28;20046;-68
2021/06/11 02:58:13;;;;;;;19.40;16.98;;;17.50;76.90;;;16.27;73.30;96266.38;4991411;28;20041;-69
2021/06/11 03:00:40;;;;;;;13.52;10.43;;;17.50;76.70;;;16.27;74.35;96271.69;4975234;28;20030;-69
2021/06/11 03:03:12;;;;;;;10.63;9.40;;;17.60;76.60;;;16.26;75.41;96280.69;4975290;28;20045;-68
2021/06/11 03:05:38;;;;;;;9.55;8.10;;;17.60;76.70;;;16.26;73.46;96274.56;5003787;28;20042;-69
2021/06/11 03:08:07;;;;;;;9.52;8.38;;;17.50;76.50;;;16.24;73.74;96274.78;4988717;28;20147;-68
2021/06/11 03:10:33;;;;;;;8.60;7.80;;;17.50;76.60;;;16.23;74.42;96273.97;4987801;28;20433;-68
2021/06/11 03:13:00;;;;;;;9.32;7.85;;;17.50;76.70;;;16.23;74.12;96283.78;4974770;28;20034;-69
2021/06/11 03:15:29;;;;;;;30.73;23.65;;;17.50;76.70;;;16.24;74.96;96277.44;4972200;28;20038;-69
2021/06/11 03:17:58;;;;;;;21.23;18.75;;;17.50;77.00;;;16.23;74.47;96275.81;4991581;28;20037;-69
2021/06/11 03:20:27;;;;;;;23.55;17.52;;;17.50;76.70;;;16.24;74.62;96274.78;4997400;28;20037;-68
2021/06/11 03:23:08;;;;;;;18.25;14.30;;;17.60;76.70;;;16.21;75.24;96276.03;4988601;28;20103;-68
2021/06/11 03:25:46;;;;;;;13.35;11.07;;;17.60;76.40;;;16.21;75.09;96283.19;5007701;28;20486;-69
2021/06/11 03:28:22;;;;;;;17.67;15.75;;;17.60;76.30;;;16.20;75.12;96285.03;4986100;28;20541;-67
2021/06/11 03:30:51;;;;;;;14.98;11.90;;;17.60;76.30;;;16.22;74.54;96277.66;4978002;28;20042;-71
2021/06/11 03:33:27;;;;;;;27.23;21.45;;;17.60;76.50;;;16.22;75.49;96279.50;4978869;28;20557;-69
2021/06/11 03:35:57;;;;;;;13.05;11.05;;;17.60;76.40;;;16.20;75.09;96277.06;4993977;28;20397;-70
2021/06/11 03:38:25;;;;;;;10.85;9.70;;;17.50;76.20;;;16.17;74.91;96279.38;4990947;28;20061;-69
2021/06/11 03:40:51;;;;;;;10.63;8.88;;;17.50;76.40;;;16.15;73.96;96274.28;4975035;28;20104;-75
2021/06/11 03:43:17;;;;;;;9.60;8.65;;;17.40;76.40;;;16.13;74.33;96281.66;5002323;28;20125;-71
2021/06/11 03:45:43;;;;;;;12.20;7.88;;;17.50;76.50;;;16.11;74.76;96277.59;4972575;28;20081;-68
2021/06/11 03:48:14;;;;;;;10.15;8.07;;;17.40;76.50;;;16.12;75.33;96281.88;4958768;28;20061;-68
2021/06/11 03:50:40;;;;;;;10.93;8.18;;;17.40;76.60;;;16.10;74.90;96273.31;4975857;28;20030;-68
2021/06/11 03:53:06;;;;;;;10.55;8.73;;;17.40;76.60;;;16.11;74.22;96285.56;4978718;28;20678;-68
2021/06/11 03:55:41;;;;;;;9.60;8.63;;;17.40;76.80;;;16.11;75.73;96274.94;4994551;28;20034;-68
2021/06/11 03:58:38;;;;;;;9.95;8.98;;;17.40;77.00;;;16.10;76.04;96289.25;5011044;28;20068;-69
2021/06/11 04:01:05;;;;;;;9.43;8.40;;;17.40;77.10;;;16.11;74.33;96285.56;4994825;28;20058;-68
2021/06/11 04:03:31;;;;;;;16.48;13.90;;;17.40;76.80;;;16.13;75.15;96286.16;4982616;28;20118;-68
2021/06/11 04:06:13;;;;;;;19.95;14.77;;;17.50;76.90;;;16.15;76.02;96286.72;4994516;28;20121;-69
2021/06/11 04:08:39;;;;;;;13.35;12.00;;;17.60;76.70;;;16.16;74.35;96288.34;5003292;28;20359;-68
2021/06/11 04:11:07;;;;;;;11.85;9.65;;;17.60;76.80;;;16.19;74.04;96290.56;4991421;28;20121;-68
2021/06/11 04:13:55;;;;;;;10.38;9.02;;;17.60;76.60;;;16.21;76.06;96296.47;4988495;28;20030;-69
2021/06/11 04:16:35;;;;;;;10.77;9.68;;;17.60;76.60;;;16.20;75.73;96294.84;5010517;28;20034;-69
2021/06/11 04:19:02;;;;;;;12.20;9.73;;;17.60;76.70;;;16.22;75.15;96300.75;4990711;28;20030;-69
2021/06/11 04:21:35;;;;;;;10.07;9.02;;;17.60;76.70;;;16.24;75.44;96296.03;5003755;28;20029;-68
2021/06/11 04:24:06;;;;;;;12.48;10.40;;;17.60;76.70;;;16.26;75.85;96293.97;4984897;28;20031;-69
2021/06/11 04:26:35;;;;;;;9.57;8.57;;;17.60;76.80;;;16.27;75.21;96297.44;4997175;28;20039;-70
2021/06/11 04:29:13;;;;;;;11.90;9.85;;;17.60;76.50;;;16.28;74.71;96305.16;4990921;28;20045;-71
2021/06/11 04:31:39;;;;;;;10.80;9.65;;;17.60;76.80;;;16.30;75.00;96303.13;5001406;28;20030;-69
2021/06/11 04:34:05;;;;;;;10.80;9.70;;;17.60;76.80;;;16.32;74.96;96311.69;4991237;28;20034;-68
2021/06/11 04:36:31;;;;;;;12.50;9.98;;;17.70;76.50;;;16.31;75.23;96312.72;5004228;28;20579;-69
2021/06/11 04:39:05;;;;;;;11.55;10.40;;;17.70;76.60;;;16.30;75.66;96311.09;4984237;28;20054;-69
2021/06/11 04:41:31;;;;;;;11.30;9.85;;;17.60;76.50;;;16.29;74.48;96303.31;4975428;28;20050;-68
2021/06/11 04:44:01;;;;;;;14.55;12.43;;;17.60;77.00;;;16.29;75.95;96313.94;4994510;28;20084;-68
2021/06/11 04:46:27;;;;;;;18.27;16.35;;;17.60;77.20;;;16.29;75.00;96309.44;4976115;28;20034;-67
2021/06/11 04:48:53;;;;;;;14.10;12.60;;;17.60;77.50;;;16.31;75.30;96310.06;4975911;28;20034;-70
2021/06/11 04:51:19;;;;;;;12.85;10.57;;;17.60;77.30;;;16.32;75.38;96310.88;4987208;28;20058;-70
2021/06/11 04:53:45;;;;;;;13.55;10.98;;;17.70;77.40;;;16.36;75.47;96314.72;4965332;28;20045;-68
2021/06/11 04:56:11;;;;;;;11.55;10.45;;;17.80;77.30;;;16.40;75.80;96319.34;4993929;28;20124;-68
2021/06/11 04:58:39;;;;;;;12.15;9.43;;;17.80;77.30;;;16.46;75.47;96313.16;4976720;28;20065;-70
2021/06/11 05:01:05;;;;;;;13.98;11.25;;;17.90;77.20;;;16.52;75.67;96322.91;4988818;28;20608;-65
2021/06/11 05:03:31;;;;;;;23.15;18.38;;;17.90;76.70;;;16.57;75.63;96324.09;4973360;28;20057;-67
2021/06/11 05:05:57;;;;;;;15.27;10.98;;;18.10;76.80;;;16.63;75.68;96320.53;4992753;28;20449;-70
2021/06/11 05:08:23;;;;;;;27.40;22.60;;;18.20;76.60;;;16.71;75.28;96314.97;4993194;28;20169;-68
2021/06/11 05:10:48;;;;;;;13.75;12.13;;;18.30;76.50;;;16.79;75.90;96322.66;4999467;28;20034;-68
2021/06/11 05:13:14;;;;;;;14.25;10.50;;;18.40;76.50;;;16.85;74.74;96329.72;4970401;28;20167;-69
2021/06/11 05:15:40;;;;;;;11.80;9.27;;;18.40;75.50;;;16.92;74.78;96335.75;4974895;28;20069;-69
2021/06/11 05:18:06;;;;;;;10.35;9.07;;;18.50;75.30;;;16.95;74.58;96337.97;4976344;28;20089;-70
2021/06/11 05:20:33;;;;;;;13.75;12.23;;;18.30;74.80;;;16.95;75.20;96330.00;4952361;28;20045;-69
2021/06/11 05:22:59;;;;;;;14.02;10.85;;;18.40;75.30;;;16.98;74.07;96332.22;4996896;28;20026;-71
2021/06/11 05:25:25;;;;;;;10.65;8.88;;;18.40;75.30;;;16.99;74.77;96325.88;4974989;28;20136;-69
2021/06/11 05:27:51;;;;;;;11.00;9.60;;;18.30;75.10;;;17.02;74.65;96336.06;4976380;28;20038;-69
2021/06/11 05:30:18;;;;;;;10.57;9.48;;;18.40;75.00;;;17.04;74.43;96339.31;4974511;28;20393;-69
2021/06/11 05:32:47;;;;;;;12.02;9.02;;;18.50;75.30;;;17.13;74.75;96332.63;5006636;28;24208;-69
2021/06/11 05:35:13;;;;;;;11.07;8.88;;;18.60;75.00;;;17.20;74.74;96337.03;4983932;28;20026;-72
2021/06/11 05:37:39;;;;;;;10.10;9.07;;;18.70;74.30;;;17.24;74.20;96332.94;4998024;28;20046;-71
2021/06/11 05:40:06;;;;;;;12.50;8.93;;;18.70;74.50;;;17.33;73.91;96334.22;4989679;28;20157;-67
2021/06/11 05:42:32;;;;;;;9.90;8.55;;;19.00;73.60;;;17.37;74.07;96330.88;4978437;28;20038;-68
2021/06/11 05:44:58;;;;;;;10.20;9.10;;;19.00;72.90;;;17.45;74.15;96337.75;4989642;28;20042;-69
2021/06/11 05:47:24;;;;;;;13.27;8.90;;;19.20;72.30;;;17.53;73.56;96337.41;5000243;28;20497;-70
2021/06/11 05:49:50;;;;;;;9.60;8.63;;;19.30;72.20;;;17.60;73.85;96330.16;4972325;28;20046;-68
2021/06/11 05:52:16;;;;;;;10.43;8.70;;;19.50;71.50;;;17.72;73.41;96341.69;4989457;28;20113;-68
2021/06/11 05:54:42;;;;;;;8.48;7.18;;;19.70;70.50;;;17.85;73.11;96342.50;5003005;28;20414;-68
2021/06/11 05:57:07;;;;;;;9.60;7.88;;;19.90;69.70;;;17.99;72.38;96339.41;4975623;28;20042;-68
2021/06/11 05:59:33;;;;;;;11.15;9.88;;;20.10;69.00;;;18.11;72.12;96350.09;5009514;28;20042;-68
2021/06/11 06:01:59;;;;;;;10.13;8.48;;;20.30;67.80;;;18.25;71.44;96346.13;5007428;28;20139;-69
2021/06/11 06:04:25;;;;;;;7.93;7.10;;;20.50;66.40;;;18.33;71.42;96331.66;4976527;28;20090;-71
2021/06/11 06:06:50;;;;;;;10.48;6.88;;;20.50;65.70;;;18.45;70.26;96340.47;4979228;28;20445;-70
2021/06/11 06:09:16;;;;;;;7.97;7.18;;;20.60;64.80;;;18.57;70.68;96329.81;5008658;28;20119;-70
2021/06/11 06:11:42;;;;;;;7.75;6.90;;;20.80;65.20;;;18.70;69.84;96337.56;4990493;28;20034;-70
2021/06/11 06:14:09;;;;;;;9.30;6.95;;;21.00;64.70;;;18.89;69.98;96347.06;4975430;28;20329;-69
2021/06/11 06:16:36;;;;;;;7.90;6.78;;;21.20;63.40;;;19.04;68.95;96343.09;4990675;28;20515;-69
2021/06/11 06:19:03;;;;;;;8.48;6.78;;;21.40;62.40;;;19.18;68.39;96344.41;4991854;28;20404;-70
2021/06/11 06:21:30;;;;;;;8.85;6.72;;;21.60;61.80;;;19.31;67.80;96335.34;4992321;28;20022;-66
2021/06/11 06:23:57;;;;;;;7.05;5.80;;;21.60;61.50;;;19.41;67.23;96335.53;4974216;28;20108;-67
2021/06/11 06:26:23;;;;;;;7.57;5.75;;;21.80;60.30;;;19.54;66.94;96343.28;4989709;28;20481;-68
2021/06/11 06:28:49;;;;;;;6.65;5.90;;;22.00;60.00;;;19.66;67.48;96343.22;4974610;28;20050;-68
2021/06/11 06:31:15;;;;;;;6.25;5.03;;;22.20;59.90;;;19.75;66.07;96334.59;5006220;28;20117;-64
2021/06/11 06:33:40;;;;;;;7.65;5.35;;;22.30;57.10;;;19.85;65.96;96333.94;4987381;28;20093;-69
2021/06/11 06:36:08;;;;;;;7.18;5.78;;;22.50;57.00;;;19.94;66.09;96329.03;4988701;28;20125;-70
2021/06/11 06:38:35;;;;;;;7.30;5.65;;;22.60;57.40;;;20.09;65.16;96339.94;5003652;28;20036;-70
2021/06/11 06:41:01;;;;;;;8.63;6.45;;;22.70;55.80;;;20.21;63.96;96330.00;4987900;28;20026;-73
2021/06/11 06:43:28;;;;;;;9.77;5.97;;;22.90;55.70;;;20.37;64.02;96333.72;4984373;28;20019;-68
2021/06/11 06:45:54;;;;;;;7.28;6.07;;;23.10;56.20;;;20.52;63.89;96336.63;4972072;28;20026;-68
2021/06/11 06:48:20;;;;;;;6.22;5.22;;;23.20;55.70;;;20.67;64.24;96334.16;4977246;28;20040;-70
2021/06/11 06:50:45;;;;;;;6.38;5.68;;;23.30;55.40;;;20.83;63.56;96345.06;4972318;28;20034;-68
2021/06/11 06:53:11;;;;;;;8.15;6.30;;;23.50;55.20;;;20.99;62.39;96336.16;4989019;28;20109;-70
2021/06/11 06:55:38;;;;;;;7.05;6.00;;;23.60;53.70;;;21.18;63.05;96340.16;4989239;28;20028;-69
2021/06/11 06:58:04;;;;;;;6.40;5.72;;;23.80;55.10;;;21.33;61.73;96340.34;4973950;28;20049;-67
2021/06/11 07:00:30;;;;;;;8.68;6.25;;;24.00;53.20;;;21.44;61.80;96335.09;4970830;28;20409;-68
2021/06/11 07:02:56;;;;;;;6.65;5.93;;;24.00;53.10;;;21.54;61.39;96335.22;5000484;28;20084;-70
2021/06/11 07:05:22;;;;;;;80.80;18.90;;;24.30;53.00;;;21.69;61.11;96346.06;4991374;28;20401;-66
2021/06/11 07:07:47;;;;;;;7.75;6.38;;;24.50;52.30;;;21.81;60.28;96338.69;4987223;28;20054;-68
2021/06/11 07:10:13;;;;;;;7.78;6.22;;;24.50;50.90;;;21.92;60.37;96340.38;4971862;28;20058;-68
2021/06/11 07:12:40;;;;;;;7.53;5.57;;;24.80;51.50;;;22.04;60.35;96344.78;4985180;28;20084;-69
2021/06/11 07:15:09;;;;;;;6.53;5.53;;;25.00;50.90;;;22.14;59.79;96347.56;4990291;28;20088;-69
2021/06/11 07:17:36;;;;;;;11.05;5.57;;;25.10;50.90;;;22.24;59.22;96347.66;5002811;28;20032;-68
2021/06/11 07:20:04;;;;;;;6.03;5.18;;;25.10;49.50;;;22.36;58.54;96353.63;4989985;28;20121;-69
2021/06/11 07:22:30;;;;;;;6.28;5.15;;;25.40;49.50;;;22.45;58.71;96343.25;4989389;28;20058;-66
2021/06/11 07:24:56;;;;;;;7.35;4.88;;;25.50;49.70;;;22.64;58.75;96344.47;4974336;28;20033;-68
2021/06/11 07:27:21;;;;;;;6.97;5.95;;;25.80;48.90;;;22.80;58.29;96348.00;4999436;28;20080;-68
2021/06/11 07:29:49;;;;;;;8.20;6.60;;;26.00;47.50;;;22.96;57.75;96346.25;4977589;28;20175;-69
2021/06/11 07:32:16;;;;;;;4.85;4.30;;;26.20;48.10;;;23.15;57.34;96340.19;5005101;28;20084;-70
2021/06/11 07:34:41;;;;;;;5.28;3.55;;;26.60;46.90;;;23.36;56.89;96345.63;4976521;28;20035;-70
2021/06/11 07:37:07;;;;;;;4.70;3.50;;;27.00;45.40;;;23.58;56.08;96340.06;4978156;28;20057;-70
2021/06/11 07:39:34;;;;;;;4.35;3.60;;;27.30;43.40;;;23.77;55.42;96335.81;5008166;28;20066;-69
2021/06/11 07:42:00;;;;;;;5.50;3.65;;;27.50;42.50;;;23.98;54.84;96341.97;4986525;28;20033;-67
2021/06/11 07:44:26;;;;;;;3.65;3.17;;;27.70;42.60;;;24.15;54.87;96334.47;4980365;28;20053;-67
2021/06/11 07:46:52;;;;;;;5.90;3.28;;;28.00;41.80;;;24.37;53.99;96336.91;5013675;28;20117;-69
2021/06/11 07:49:17;;;;;;;6.07;3.50;;;28.20;41.10;;;24.56;53.33;96342.53;4993526;28;20038;-70
2021/06/11 07:51:43;;;;;;;4.95;3.35;;;28.60;39.80;;;24.77;52.41;96337.94;4967389;28;20042;-68
2021/06/11 07:54:09;;;;;;;7.28;3.60;;;28.70;41.10;;;24.96;52.08;96336.25;4980728;28;20504;-69
2021/06/11 07:56:37;;;;;;;4.88;3.40;;;28.90;39.30;;;25.13;51.73;96341.34;4964338;28;20053;-69
2021/06/11 07:59:03;;;;;;;4.93;3.55;;;29.00;38.40;;;25.21;50.72;96335.38;4980233;28;20041;-69
2021/06/11 08:01:31;;;;;;;4.38;3.28;;;28.90;38.30;;;25.30;49.73;96331.81;4988629;28;20109;-68
2021/06/11 08:03:57;;;;;;;3.67;3.38;;;28.90;39.40;;;25.39;49.84;96332.06;5003541;28;20025;-70
2021/06/11 08:06:23;;;;;;;4.05;3.65;;;28.70;37.60;;;25.43;49.37;96335.81;4992951;28;20126;-69
2021/06/11 08:08:49;;;;;;;6.00;3.90;;;28.70;37.50;;;25.54;49.35;96336.56;4979160;28;20103;-69
2021/06/11 08:11:15;;;;;;;4.45;3.78;;;29.10;38.00;;;25.61;48.53;96332.50;4981123;28;20026;-70
2021/06/11 08:13:41;;;;;;;4.40;3.40;;;28.80;38.00;;;25.68;48.54;96331.41;4995878;28;20038;-69
2021/06/11 08:16:07;;;;;;;3.83;3.40;;;28.80;38.20;;;25.80;48.49;96334.53;5012479;28;20110;-69
2021/06/11 08:18:32;;;;;;;6.32;3.40;;;29.00;37.80;;;25.95;48.10;96337.13;4995072;28;20420;-68
2021/06/11 08:20:58;;;;;;;3.38;3.03;;;29.40;38.10;;;26.20;47.92;96331.53;4982301;28;20101;-68
2021/06/11 08:23:24;;;;;;;5.15;3.10;;;29.70;37.60;;;26.39;48.39;96341.66;4996325;28;20070;-69
2021/06/11 08:25:50;;;;;;;3.97;3.20;;;29.90;38.20;;;26.57;47.81;96338.25;4994200;28;20039;-68
2021/06/11 08:28:15;;;;;;;3.42;2.75;;;29.90;38.20;;;26.82;47.38;96342.59;4996150;28;20448;-67
2021/06/11 08:30:41;;;;;;;4.88;3.58;;;30.30;36.90;;;27.02;46.81;96323.50;4993639;28;20121;-68
2021/06/11 08:33:07;;;;;;;3.47;3.05;;;30.50;36.70;;;27.23;45.95;96324.06;4994000;28;20034;-67
2021/06/11 08:35:33;;;;;;;3.85;3.20;;;30.50;36.40;;;27.40;45.84;96321.69;4977145;28;20034;-67
2021/06/11 08:37:59;;;;;;;4.88;2.90;;;30.60;35.80;;;27.54;45.06;96318.25;4992287;28;20042;-68
2021/06/11 08:40:25;;;;;;;4.82;3.17;;;30.60;34.90;;;27.72;44.85;96325.59;5006125;28;20397;-68
2021/06/11 08:42:51;;;;;;;4.53;2.88;;;30.80;35.80;;;27.92;43.40;96319.88;4989231;28;21131;-68
2021/06/11 08:45:17;;;;;;;3.13;2.83;;;30.90;33.90;;;28.03;43.53;96326.72;4991935;28;20145;-68
2021/06/11 08:47:47;;;;;;;3.60;2.92;;;31.10;34.70;;;28.13;42.46;96323.06;4993159;28;20177;-68
2021/06/11 08:50:15;;;;;;;3.15;2.83;;;31.10;35.50;;;28.23;42.93;96328.28;4982778;28;20081;-68
2021/06/11 08:52:41;;;;;;;3.83;2.97;;;31.00;34.20;;;28.22;42.14;96328.59;4977312;28;20033;-67
2021/06/11 08:55:07;;;;;;;2.58;2.38;;;30.90;35.10;;;28.24;42.51;96331.81;4981734;28;20108;-69
2021/06/11 08:57:33;;;;;;;3.38;2.75;;;31.00;35.10;;;28.26;42.29;96332.34;4976142;28;20041;-68
2021/06/11 08:59:59;;;;;;;4.88;3.22;;;30.70;34.40;;;28.23;41.62;96324.78;4980067;28;20045;-69
2021/06/11 09:02:25;;;;;;;3.20;2.80;;;30.70;33.80;;;28.21;41.59;96329.69;4979926;28;20066;-68
2021/06/11 09:04:57;;;;;;;4.25;3.33;;;31.00;33.60;;;28.26;41.06;96335.03;4973886;28;20062;-69
2021/06/11 09:07:29;;;;;;;3.70;2.83;;;30.90;33.20;;;28.34;41.08;96337.09;4989376;28;20113;-69
2021/06/11 09:10:04;;;;;;;3.80;2.78;;;31.30;33.20;;;28.53;39.71;96334.34;5001589;28;20462;-69
2021/06/11 09:12:31;;;;;;;5.68;3.33;;;31.60;34.00;;;28.63;40.57;96334.94;4976033;28;20042;-68
2021/06/11 09:15:04;;;;;;;3.80;3.00;;;31.50;34.10;;;28.73;41.01;96330.44;4992993;28;20401;-67
2021/06/11 09:17:46;;;;;;;3.95;2.72;;;31.50;33.80;;;28.77;38.56;96334.16;5008935;28;20081;-68
2021/06/11 09:20:18;;;;;;;3.63;3.03;;;31.50;32.50;;;28.82;37.74;96331.38;4989711;28;20030;-68
2021/06/11 09:22:59;;;;;;;3.00;2.60;;;31.60;31.50;;;29.00;38.34;96330.50;5021900;28;20084;-69
2021/06/11 09:25:45;;;;;;;3.60;3.30;;;32.10;32.70;;;29.11;36.72;96340.03;4999932;28;20037;-67
2021/06/11 09:28:13;;;;;;;4.05;2.90;;;31.80;31.50;;;29.13;37.77;96337.81;4979000;28;20184;-68
2021/06/11 09:30:39;;;;;;;2.80;2.40;;;31.80;32.00;;;29.36;39.25;96332.47;5004093;28;20145;-68
2021/06/11 09:33:08;;;;;;;3.38;2.78;;;32.50;33.80;;;29.53;38.43;96335.41;4992613;28;20116;-68
2021/06/11 09:35:43;;;;;;;4.22;2.13;;;32.50;31.90;;;29.69;37.00;96344.00;4990886;28;20036;-68
2021/06/11 09:38:22;;;;;;;2.95;2.55;;;32.70;31.40;;;29.81;36.90;96336.13;4990688;28;20202;-68
2021/06/11 09:41:07;;;;;;;3.20;2.90;;;32.80;31.50;;;29.99;35.43;96337.06;5003722;28;20046;-68
2021/06/11 09:43:33;;;;;;;5.40;2.60;;;32.80;30.60;;;30.06;37.96;96332.03;4978078;28;20026;-68
2021/06/11 09:46:07;;;;;;;3.30;2.65;;;32.50;30.20;;;30.12;35.72;96331.63;4975084;28;20041;-70
2021/06/11 09:48:46;;;;;;;3.53;2.33;;;32.50;30.00;;;30.23;34.58;96334.88;4988273;28;20034;-69
2021/06/11 09:51:23;;;;;;;3.45;2.90;;;33.10;29.50;;;30.49;35.23;96341.28;4972417;28;20038;-69
2021/06/11 09:53:49;;;;;;;3.40;2.65;;;33.50;29.80;;;30.69;35.88;96328.31;5001055;28;20496;-69
2021/06/11 09:56:26;;;;;;;3.20;2.30;;;33.80;29.90;;;30.99;34.76;96335.63;4980845;28;20030;-70
2021/06/11 09:58:54;;;;;;;4.07;2.60;;;34.50;29.30;;;31.17;36.42;96333.03;4984714;28;20049;-67
2021/06/11 10:01:22;;;;;;;4.65;2.50;;;34.50;28.50;;;31.38;35.76;96318.53;4993208;28;20519;-65
2021/06/11 10:03:50;;;;;;;6.10;2.60;;;34.90;27.60;;;31.64;35.28;96321.28;4962757;28;20029;-66
2021/06/11 10:06:17;;;;;;;3.08;2.40;;;35.20;27.40;;;32.08;35.42;96321.31;4975992;28;20104;-66
2021/06/11 10:08:45;;;;;;;3.55;2.30;;;35.70;27.30;;;32.52;34.22;96320.97;4988735;28;20044;-67
2021/06/11 10:11:20;;;;;;;3.20;2.60;;;35.60;26.70;;;32.94;31.58;96317.66;4989018;28;20041;-66
2021/06/11 10:13:46;;;;;;;3.17;2.72;;;35.90;26.10;;;33.28;33.08;96313.97;5004528;28;20068;-66
2021/06/11 10:16:15;;;;;;;2.45;2.25;;;36.30;26.10;;;33.53;31.42;96309.50;4985261;28;20030;-69
2021/06/11 10:18:41;;;;;;;3.03;2.72;;;36.40;24.50;;;33.76;31.57;96316.25;5005650;28;20044;-66